sensor_id;sensor_type;location;lat;lon;timestamp;P1;durP1;ratioP1;P2;durP2;ratioP2
16478;SDS011;8350;52.316;10.530;2023-10-19T00:02:08;6.82;;;4.82;;
16478;SDS011;8350;52.316;10.530;2023-10-19T00:04:37;6.32;;;5.40;;
16478;SDS011;8350;52.316;10.530;2023-10-19T00:07:06;6.13;;;5.05;;
16478;SDS011;8350;52.316;10.530;2023-10-19T00:09:40;5.25;;;4.75;;
16478;SDS011;8350;52.316;10.530;2023-10-19T00:12:10;5.72;;;4.80;;
16478;SDS011;8350;52.316;10.530;2023-10-19T00:14:38;8.65;;;6.47;;
16478;SDS011;8350;52.316;10.530;2023-10-19T00:17:04;5.72;;;5.13;;
16478;SDS011;8350;52.316;10.530;2023-10-19T00:19:35;7.05;;;5.93;;
16478;SDS011;8350;52.316;10.530;2023-10-19T00:22:04;6.72;;;4.57;;
16478;SDS011;8350;52.316;10.530;2023-10-19T00:24:45;7.35;;;4.70;;
16478;SDS011;8350;52.316;10.530;2023-10-19T00:27:13;6.47;;;5.22;;
16478;SDS011;8350;52.316;10.530;2023-10-19T00:29:43;6.43;;;5.22;;
16478;SDS011;8350;52.316;10.530;2023-10-19T00:32:15;6.97;;;5.30;;
16478;SDS011;8350;52.316;10.530;2023-10-19T00:34:44;6.05;;;5.45;;
16478;SDS011;8350;52.316;10.530;2023-10-19T00:37:18;6.90;;;5.82;;
16478;SDS011;8350;52.316;10.530;2023-10-19T00:39:51;7.80;;;6.22;;
16478;SDS011;8350;52.316;10.530;2023-10-19T00:42:20;7.03;;;6.18;;
16478;SDS011;8350;52.316;10.530;2023-10-19T00:44:54;6.55;;;5.85;;
16478;SDS011;8350;52.316;10.530;2023-10-19T00:47:29;8.43;;;5.78;;
16478;SDS011;8350;52.316;10.530;2023-10-19T00:50:05;7.22;;;5.97;;
16478;SDS011;8350;52.316;10.530;2023-10-19T00:52:41;6.07;;;5.32;;
16478;SDS011;8350;52.316;10.530;2023-10-19T00:55:14;5.53;;;4.80;;
16478;SDS011;8350;52.316;10.530;2023-10-19T00:57:44;6.97;;;5.65;;
16478;SDS011;8350;52.316;10.530;2023-10-19T01:00:14;6.95;;;6.20;;
16478;SDS011;8350;52.316;10.530;2023-10-19T01:02:56;8.63;;;6.40;;
16478;SDS011;8350;52.316;10.530;2023-10-19T01:05:30;8.13;;;7.03;;
16478;SDS011;8350;52.316;10.530;2023-10-19T01:08:02;7.88;;;5.82;;
16478;SDS011;8350;52.316;10.530;2023-10-19T01:10:39;7.60;;;6.05;;
16478;SDS011;8350;52.316;10.530;2023-10-19T01:13:10;6.63;;;5.53;;
16478;SDS011;8350;52.316;10.530;2023-10-19T01:15:37;8.70;;;5.93;;
16478;SDS011;8350;52.316;10.530;2023-10-19T01:18:06;9.13;;;6.78;;
16478;SDS011;8350;52.316;10.530;2023-10-19T01:20:35;6.25;;;5.55;;
16478;SDS011;8350;52.316;10.530;2023-10-19T01:23:19;7.55;;;6.35;;
16478;SDS011;8350;52.316;10.530;2023-10-19T01:25:51;8.85;;;6.45;;
16478;SDS011;8350;52.316;10.530;2023-10-19T01:28:33;7.38;;;5.72;;
16478;SDS011;8350;52.316;10.530;2023-10-19T01:31:13;8.43;;;6.82;;
16478;SDS011;8350;52.316;10.530;2023-10-19T01:33:42;8.18;;;7.00;;
16478;SDS011;8350;52.316;10.530;2023-10-19T01:36:10;8.73;;;7.22;;
16478;SDS011;8350;52.316;10.530;2023-10-19T01:38:38;7.82;;;7.03;;
16478;SDS011;8350;52.316;10.530;2023-10-19T01:41:06;9.07;;;6.95;;
16478;SDS011;8350;52.316;10.530;2023-10-19T01:43:38;9.00;;;6.85;;
16478;SDS011;8350;52.316;10.530;2023-10-19T01:46:08;7.20;;;6.38;;
16478;SDS011;8350;52.316;10.530;2023-10-19T01:48:41;6.70;;;6.10;;
16478;SDS011;8350;52.316;10.530;2023-10-19T01:51:09;8.73;;;6.30;;
16478;SDS011;8350;52.316;10.530;2023-10-19T01:53:40;10.32;;;7.25;;
16478;SDS011;8350;52.316;10.530;2023-10-19T01:56:09;8.02;;;6.72;;
16478;SDS011;8350;52.316;10.530;2023-10-19T01:58:39;5.97;;;5.28;;
16478;SDS011;8350;52.316;10.530;2023-10-19T02:01:07;8.60;;;5.57;;
16478;SDS011;8350;52.316;10.530;2023-10-19T02:03:39;8.18;;;6.50;;
16478;SDS011;8350;52.316;10.530;2023-10-19T02:06:07;10.25;;;7.82;;
16478;SDS011;8350;52.316;10.530;2023-10-19T02:08:44;7.78;;;6.20;;
16478;SDS011;8350;52.316;10.530;2023-10-19T02:11:13;8.68;;;6.30;;
16478;SDS011;8350;52.316;10.530;2023-10-19T02:13:42;5.45;;;4.57;;
16478;SDS011;8350;52.316;10.530;2023-10-19T02:16:11;7.43;;;5.78;;
16478;SDS011;8350;52.316;10.530;2023-10-19T02:18:38;8.82;;;6.50;;
16478;SDS011;8350;52.316;10.530;2023-10-19T02:21:05;6.55;;;5.85;;
16478;SDS011;8350;52.316;10.530;2023-10-19T02:23:32;10.57;;;7.15;;
16478;SDS011;8350;52.316;10.530;2023-10-19T02:26:02;7.82;;;6.25;;
16478;SDS011;8350;52.316;10.530;2023-10-19T02:28:30;9.15;;;6.85;;
16478;SDS011;8350;52.316;10.530;2023-10-19T02:31:02;10.73;;;7.60;;
16478;SDS011;8350;52.316;10.530;2023-10-19T02:33:37;7.65;;;6.85;;
16478;SDS011;8350;52.316;10.530;2023-10-19T02:36:04;9.02;;;7.28;;
16478;SDS011;8350;52.316;10.530;2023-10-19T02:38:38;8.65;;;7.28;;
16478;SDS011;8350;52.316;10.530;2023-10-19T02:41:09;9.23;;;8.10;;
16478;SDS011;8350;52.316;10.530;2023-10-19T02:43:37;9.35;;;7.35;;
16478;SDS011;8350;52.316;10.530;2023-10-19T02:46:03;10.55;;;7.43;;
16478;SDS011;8350;52.316;10.530;2023-10-19T02:48:31;9.45;;;6.35;;
16478;SDS011;8350;52.316;10.530;2023-10-19T02:50:56;8.18;;;7.32;;
16478;SDS011;8350;52.316;10.530;2023-10-19T02:53:31;7.45;;;6.20;;
16478;SDS011;8350;52.316;10.530;2023-10-19T02:55:59;9.77;;;7.57;;
16478;SDS011;8350;52.316;10.530;2023-10-19T02:58:28;8.10;;;6.20;;
16478;SDS011;8350;52.316;10.530;2023-10-19T03:00:54;10.95;;;7.18;;
16478;SDS011;8350;52.316;10.530;2023-10-19T03:03:22;7.78;;;6.95;;
16478;SDS011;8350;52.316;10.530;2023-10-19T03:05:49;10.50;;;7.97;;
16478;SDS011;8350;52.316;10.530;2023-10-19T03:08:16;9.48;;;6.10;;
16478;SDS011;8350;52.316;10.530;2023-10-19T03:10:44;10.68;;;7.47;;
16478;SDS011;8350;52.316;10.530;2023-10-19T03:13:11;10.20;;;7.40;;
16478;SDS011;8350;52.316;10.530;2023-10-19T03:15:41;10.43;;;8.15;;
16478;SDS011;8350;52.316;10.530;2023-10-19T03:18:08;9.50;;;6.95;;
16478;SDS011;8350;52.316;10.530;2023-10-19T03:20:37;9.40;;;8.35;;
16478;SDS011;8350;52.316;10.530;2023-10-19T03:23:06;7.05;;;6.20;;
16478;SDS011;8350;52.316;10.530;2023-10-19T03:25:35;10.73;;;8.23;;
16478;SDS011;8350;52.316;10.530;2023-10-19T03:28:20;10.20;;;8.00;;
16478;SDS011;8350;52.316;10.530;2023-10-19T03:30:52;9.80;;;8.07;;
16478;SDS011;8350;52.316;10.530;2023-10-19T03:33:20;9.63;;;7.85;;
16478;SDS011;8350;52.316;10.530;2023-10-19T03:35:52;11.00;;;8.75;;
16478;SDS011;8350;52.316;10.530;2023-10-19T03:38:19;9.95;;;8.63;;
16478;SDS011;8350;52.316;10.530;2023-10-19T03:40:49;8.55;;;7.60;;
16478;SDS011;8350;52.316;10.530;2023-10-19T03:43:24;7.97;;;6.80;;
16478;SDS011;8350;52.316;10.530;2023-10-19T03:45:53;13.55;;;9.20;;
16478;SDS011;8350;52.316;10.530;2023-10-19T03:48:21;11.57;;;9.25;;
16478;SDS011;8350;52.316;10.530;2023-10-19T03:50:55;12.00;;;8.93;;
16478;SDS011;8350;52.316;10.530;2023-10-19T03:53:23;11.43;;;8.93;;
16478;SDS011;8350;52.316;10.530;2023-10-19T03:55:50;9.70;;;7.68;;
16478;SDS011;8350;52.316;10.530;2023-10-19T03:58:18;10.88;;;9.18;;
16478;SDS011;8350;52.316;10.530;2023-10-19T04:00:46;12.00;;;9.10;;
16478;SDS011;8350;52.316;10.530;2023-10-19T04:03:15;11.07;;;8.57;;
16478;SDS011;8350;52.316;10.530;2023-10-19T04:05:43;9.93;;;7.55;;
16478;SDS011;8350;52.316;10.530;2023-10-19T04:08:12;10.00;;;7.60;;
16478;SDS011;8350;52.316;10.530;2023-10-19T04:10:43;13.60;;;10.02;;
16478;SDS011;8350;52.316;10.530;2023-10-19T04:13:32;10.65;;;8.48;;
16478;SDS011;8350;52.316;10.530;2023-10-19T04:16:00;12.15;;;9.85;;
16478;SDS011;8350;52.316;10.530;2023-10-19T04:18:29;11.73;;;8.50;;
16478;SDS011;8350;52.316;10.530;2023-10-19T04:20:56;11.05;;;8.77;;
16478;SDS011;8350;52.316;10.530;2023-10-19T04:23:24;9.25;;;7.80;;
16478;SDS011;8350;52.316;10.530;2023-10-19T04:26:01;9.73;;;8.18;;
16478;SDS011;8350;52.316;10.530;2023-10-19T04:28:36;10.27;;;7.72;;
16478;SDS011;8350;52.316;10.530;2023-10-19T04:31:09;9.40;;;7.65;;
16478;SDS011;8350;52.316;10.530;2023-10-19T04:33:41;9.70;;;8.05;;
16478;SDS011;8350;52.316;10.530;2023-10-19T04:36:11;10.43;;;7.80;;
16478;SDS011;8350;52.316;10.530;2023-10-19T04:38:39;9.50;;;7.85;;
16478;SDS011;8350;52.316;10.530;2023-10-19T04:41:06;10.50;;;8.95;;
16478;SDS011;8350;52.316;10.530;2023-10-19T04:43:34;10.05;;;9.05;;
16478;SDS011;8350;52.316;10.530;2023-10-19T04:46:06;11.23;;;8.70;;
16478;SDS011;8350;52.316;10.530;2023-10-19T04:48:36;10.80;;;8.15;;
16478;SDS011;8350;52.316;10.530;2023-10-19T04:51:09;13.07;;;8.77;;
16478;SDS011;8350;52.316;10.530;2023-10-19T04:53:36;10.23;;;8.63;;
16478;SDS011;8350;52.316;10.530;2023-10-19T04:56:04;11.00;;;8.18;;
16478;SDS011;8350;52.316;10.530;2023-10-19T04:58:33;12.40;;;9.55;;
16478;SDS011;8350;52.316;10.530;2023-10-19T05:01:01;11.07;;;7.80;;
16478;SDS011;8350;52.316;10.530;2023-10-19T05:03:29;11.32;;;8.45;;
16478;SDS011;8350;52.316;10.530;2023-10-19T05:05:56;11.02;;;8.45;;
16478;SDS011;8350;52.316;10.530;2023-10-19T05:08:25;11.48;;;8.38;;
16478;SDS011;8350;52.316;10.530;2023-10-19T05:10:52;10.27;;;8.80;;
16478;SDS011;8350;52.316;10.530;2023-10-19T05:13:21;12.65;;;9.88;;
16478;SDS011;8350;52.316;10.530;2023-10-19T05:15:48;11.43;;;8.75;;
16478;SDS011;8350;52.316;10.530;2023-10-19T05:18:15;11.48;;;9.52;;
16478;SDS011;8350;52.316;10.530;2023-10-19T05:20:42;10.10;;;8.82;;
16478;SDS011;8350;52.316;10.530;2023-10-19T05:23:11;9.60;;;8.60;;
16478;SDS011;8350;52.316;10.530;2023-10-19T05:25:40;10.02;;;8.48;;
16478;SDS011;8350;52.316;10.530;2023-10-19T05:28:07;11.20;;;7.75;;
16478;SDS011;8350;52.316;10.530;2023-10-19T05:30:37;9.38;;;8.23;;
16478;SDS011;8350;52.316;10.530;2023-10-19T05:33:04;12.45;;;7.32;;
16478;SDS011;8350;52.316;10.530;2023-10-19T05:35:32;10.07;;;8.90;;
16478;SDS011;8350;52.316;10.530;2023-10-19T05:38:05;10.40;;;8.75;;
16478;SDS011;8350;52.316;10.530;2023-10-19T05:40:32;8.68;;;7.63;;
16478;SDS011;8350;52.316;10.530;2023-10-19T05:43:02;8.73;;;6.70;;
16478;SDS011;8350;52.316;10.530;2023-10-19T05:45:29;10.30;;;7.88;;
16478;SDS011;8350;52.316;10.530;2023-10-19T05:47:57;11.48;;;8.23;;
16478;SDS011;8350;52.316;10.530;2023-10-19T05:50:25;10.43;;;9.35;;
16478;SDS011;8350;52.316;10.530;2023-10-19T05:52:53;10.68;;;7.72;;
16478;SDS011;8350;52.316;10.530;2023-10-19T05:55:20;10.65;;;8.50;;
16478;SDS011;8350;52.316;10.530;2023-10-19T05:57:47;10.35;;;8.75;;
16478;SDS011;8350;52.316;10.530;2023-10-19T06:00:17;8.95;;;7.72;;
16478;SDS011;8350;52.316;10.530;2023-10-19T06:02:46;9.00;;;7.80;;
16478;SDS011;8350;52.316;10.530;2023-10-19T06:05:14;8.10;;;6.68;;
16478;SDS011;8350;52.316;10.530;2023-10-19T06:07:41;8.02;;;6.78;;
16478;SDS011;8350;52.316;10.530;2023-10-19T06:10:10;12.07;;;9.80;;
16478;SDS011;8350;52.316;10.530;2023-10-19T06:12:42;9.60;;;7.38;;
16478;SDS011;8350;52.316;10.530;2023-10-19T06:15:10;10.90;;;7.45;;
16478;SDS011;8350;52.316;10.530;2023-10-19T06:17:39;11.07;;;8.27;;
16478;SDS011;8350;52.316;10.530;2023-10-19T06:20:11;7.65;;;6.75;;
16478;SDS011;8350;52.316;10.530;2023-10-19T06:22:49;10.65;;;8.32;;
16478;SDS011;8350;52.316;10.530;2023-10-19T06:25:18;10.50;;;8.23;;
16478;SDS011;8350;52.316;10.530;2023-10-19T06:27:47;8.88;;;6.85;;
16478;SDS011;8350;52.316;10.530;2023-10-19T06:30:14;9.10;;;6.72;;
16478;SDS011;8350;52.316;10.530;2023-10-19T06:32:48;7.90;;;6.68;;
16478;SDS011;8350;52.316;10.530;2023-10-19T06:35:17;9.57;;;6.90;;
16478;SDS011;8350;52.316;10.530;2023-10-19T06:37:47;10.05;;;6.90;;
16478;SDS011;8350;52.316;10.530;2023-10-19T06:40:17;9.80;;;7.15;;
16478;SDS011;8350;52.316;10.530;2023-10-19T06:42:45;8.65;;;7.45;;
16478;SDS011;8350;52.316;10.530;2023-10-19T06:45:13;11.93;;;8.43;;
16478;SDS011;8350;52.316;10.530;2023-10-19T06:47:41;10.93;;;7.30;;
16478;SDS011;8350;52.316;10.530;2023-10-19T06:50:11;10.13;;;7.10;;
16478;SDS011;8350;52.316;10.530;2023-10-19T06:52:41;8.15;;;6.85;;
16478;SDS011;8350;52.316;10.530;2023-10-19T06:55:10;7.25;;;5.38;;
16478;SDS011;8350;52.316;10.530;2023-10-19T06:57:40;7.88;;;6.65;;
16478;SDS011;8350;52.316;10.530;2023-10-19T07:00:10;9.20;;;7.13;;
16478;SDS011;8350;52.316;10.530;2023-10-19T07:02:41;7.78;;;6.15;;
16478;SDS011;8350;52.316;10.530;2023-10-19T07:05:13;9.25;;;6.93;;
16478;SDS011;8350;52.316;10.530;2023-10-19T07:07:43;7.68;;;6.88;;
16478;SDS011;8350;52.316;10.530;2023-10-19T07:10:11;6.97;;;5.93;;
16478;SDS011;8350;52.316;10.530;2023-10-19T07:12:40;8.38;;;6.47;;
16478;SDS011;8350;52.316;10.530;2023-10-19T07:15:13;9.43;;;6.93;;
16478;SDS011;8350;52.316;10.530;2023-10-19T07:17:40;9.15;;;6.88;;
16478;SDS011;8350;52.316;10.530;2023-10-19T07:20:08;6.95;;;6.25;;
16478;SDS011;8350;52.316;10.530;2023-10-19T07:22:48;6.47;;;5.28;;
16478;SDS011;8350;52.316;10.530;2023-10-19T07:25:16;6.93;;;6.20;;
16478;SDS011;8350;52.316;10.530;2023-10-19T07:27:46;6.93;;;5.63;;
16478;SDS011;8350;52.316;10.530;2023-10-19T07:30:13;8.90;;;5.85;;
16478;SDS011;8350;52.316;10.530;2023-10-19T07:32:45;6.40;;;5.78;;
16478;SDS011;8350;52.316;10.530;2023-10-19T07:35:16;8.88;;;6.20;;
16478;SDS011;8350;52.316;10.530;2023-10-19T07:37:44;8.60;;;6.30;;
16478;SDS011;8350;52.316;10.530;2023-10-19T07:40:14;7.35;;;6.07;;
16478;SDS011;8350;52.316;10.530;2023-10-19T07:42:43;7.45;;;6.35;;
16478;SDS011;8350;52.316;10.530;2023-10-19T07:45:10;5.53;;;5.00;;
16478;SDS011;8350;52.316;10.530;2023-10-19T07:47:37;6.85;;;5.97;;
16478;SDS011;8350;52.316;10.530;2023-10-19T07:50:06;6.18;;;5.13;;
16478;SDS011;8350;52.316;10.530;2023-10-19T07:52:37;6.70;;;5.60;;
16478;SDS011;8350;52.316;10.530;2023-10-19T07:55:05;6.72;;;5.95;;
16478;SDS011;8350;52.316;10.530;2023-10-19T07:57:34;8.05;;;6.38;;
16478;SDS011;8350;52.316;10.530;2023-10-19T08:00:02;7.75;;;6.00;;
16478;SDS011;8350;52.316;10.530;2023-10-19T08:02:30;8.60;;;6.00;;
16478;SDS011;8350;52.316;10.530;2023-10-19T08:04:59;5.68;;;4.68;;
16478;SDS011;8350;52.316;10.530;2023-10-19T08:07:27;6.30;;;5.32;;
16478;SDS011;8350;52.316;10.530;2023-10-19T08:09:55;6.38;;;5.68;;
16478;SDS011;8350;52.316;10.530;2023-10-19T08:12:24;7.13;;;5.55;;
16478;SDS011;8350;52.316;10.530;2023-10-19T08:14:53;6.43;;;5.75;;
16478;SDS011;8350;52.316;10.530;2023-10-19T08:17:21;6.50;;;5.30;;
16478;SDS011;8350;52.316;10.530;2023-10-19T08:19:48;5.60;;;5.10;;
16478;SDS011;8350;52.316;10.530;2023-10-19T08:22:15;7.68;;;5.63;;
16478;SDS011;8350;52.316;10.530;2023-10-19T08:24:42;6.22;;;5.65;;
16478;SDS011;8350;52.316;10.530;2023-10-19T08:27:11;6.93;;;4.90;;
16478;SDS011;8350;52.316;10.530;2023-10-19T08:29:38;7.03;;;5.30;;
16478;SDS011;8350;52.316;10.530;2023-10-19T08:32:06;5.22;;;4.72;;
16478;SDS011;8350;52.316;10.530;2023-10-19T08:34:34;5.75;;;5.13;;
16478;SDS011;8350;52.316;10.530;2023-10-19T08:37:02;6.13;;;5.00;;
16478;SDS011;8350;52.316;10.530;2023-10-19T08:39:29;6.57;;;5.60;;
16478;SDS011;8350;52.316;10.530;2023-10-19T08:42:03;5.57;;;4.65;;
16478;SDS011;8350;52.316;10.530;2023-10-19T08:44:30;5.38;;;4.55;;
16478;SDS011;8350;52.316;10.530;2023-10-19T08:46:58;4.63;;;4.05;;
16478;SDS011;8350;52.316;10.530;2023-10-19T08:49:27;5.18;;;3.92;;
16478;SDS011;8350;52.316;10.530;2023-10-19T08:51:55;5.88;;;4.85;;
16478;SDS011;8350;52.316;10.530;2023-10-19T08:54:25;5.35;;;4.85;;
16478;SDS011;8350;52.316;10.530;2023-10-19T08:56:52;5.90;;;4.32;;
16478;SDS011;8350;52.316;10.530;2023-10-19T08:59:20;4.88;;;4.38;;
16478;SDS011;8350;52.316;10.530;2023-10-19T09:01:48;5.55;;;4.95;;
16478;SDS011;8350;52.316;10.530;2023-10-19T09:04:15;5.30;;;4.65;;
16478;SDS011;8350;52.316;10.530;2023-10-19T09:06:44;5.43;;;4.50;;
16478;SDS011;8350;52.316;10.530;2023-10-19T09:09:13;5.30;;;4.43;;
16478;SDS011;8350;52.316;10.530;2023-10-19T09:11:42;5.45;;;4.53;;
16478;SDS011;8350;52.316;10.530;2023-10-19T09:14:09;4.40;;;3.83;;
16478;SDS011;8350;52.316;10.530;2023-10-19T09:16:38;5.47;;;4.65;;
16478;SDS011;8350;52.316;10.530;2023-10-19T09:19:19;5.70;;;4.43;;
16478;SDS011;8350;52.316;10.530;2023-10-19T09:21:48;5.90;;;4.82;;
16478;SDS011;8350;52.316;10.530;2023-10-19T09:24:15;4.68;;;4.28;;
16478;SDS011;8350;52.316;10.530;2023-10-19T09:26:43;4.95;;;4.45;;
16478;SDS011;8350;52.316;10.530;2023-10-19T09:29:13;5.10;;;4.22;;
16478;SDS011;8350;52.316;10.530;2023-10-19T09:31:44;5.13;;;4.63;;
16478;SDS011;8350;52.316;10.530;2023-10-19T09:34:14;4.60;;;4.05;;
16478;SDS011;8350;52.316;10.530;2023-10-19T09:36:42;5.38;;;4.38;;
16478;SDS011;8350;52.316;10.530;2023-10-19T09:39:12;5.95;;;4.97;;
16478;SDS011;8350;52.316;10.530;2023-10-19T09:41:57;6.00;;;4.55;;
16478;SDS011;8350;52.316;10.530;2023-10-19T09:44:55;4.65;;;4.18;;
16478;SDS011;8350;52.316;10.530;2023-10-19T09:47:31;5.72;;;5.13;;
16478;SDS011;8350;52.316;10.530;2023-10-19T09:50:04;5.10;;;4.53;;
16478;SDS011;8350;52.316;10.530;2023-10-19T09:52:32;5.07;;;4.55;;
16478;SDS011;8350;52.316;10.530;2023-10-19T09:55:03;7.07;;;5.35;;
16478;SDS011;8350;52.316;10.530;2023-10-19T09:57:36;8.13;;;4.82;;
16478;SDS011;8350;52.316;10.530;2023-10-19T10:00:10;5.43;;;4.93;;
16478;SDS011;8350;52.316;10.530;2023-10-19T10:02:38;5.28;;;4.70;;
16478;SDS011;8350;52.316;10.530;2023-10-19T10:13:59;6.40;;;5.47;;
16478;SDS011;8350;52.316;10.530;2023-10-19T10:16:27;5.95;;;4.50;;
16478;SDS011;8350;52.316;10.530;2023-10-19T10:18:55;5.57;;;4.95;;
16478;SDS011;8350;52.316;10.530;2023-10-19T10:21:25;6.68;;;5.28;;
16478;SDS011;8350;52.316;10.530;2023-10-19T10:23:54;5.80;;;5.30;;
16478;SDS011;8350;52.316;10.530;2023-10-19T10:26:23;5.13;;;4.63;;
16478;SDS011;8350;52.316;10.530;2023-10-19T10:29:11;5.32;;;4.45;;
16478;SDS011;8350;52.316;10.530;2023-10-19T10:31:45;5.20;;;4.70;;
16478;SDS011;8350;52.316;10.530;2023-10-19T10:37:10;5.57;;;4.93;;
16478;SDS011;8350;52.316;10.530;2023-10-19T10:39:38;5.20;;;4.22;;
16478;SDS011;8350;52.316;10.530;2023-10-19T10:42:08;5.38;;;4.80;;
16478;SDS011;8350;52.316;10.530;2023-10-19T10:44:38;6.07;;;4.85;;
16478;SDS011;8350;52.316;10.530;2023-10-19T10:47:09;4.82;;;4.32;;
16478;SDS011;8350;52.316;10.530;2023-10-19T10:49:47;6.43;;;5.15;;
16478;SDS011;8350;52.316;10.530;2023-10-19T10:52:25;5.28;;;4.30;;
16478;SDS011;8350;52.316;10.530;2023-10-19T10:54:54;6.45;;;4.88;;
16478;SDS011;8350;52.316;10.530;2023-10-19T10:57:21;6.35;;;5.57;;
16478;SDS011;8350;52.316;10.530;2023-10-19T11:00:02;6.32;;;5.00;;
16478;SDS011;8350;52.316;10.530;2023-10-19T11:02:31;6.47;;;5.22;;
16478;SDS011;8350;52.316;10.530;2023-10-19T11:04:59;5.65;;;5.13;;
16478;SDS011;8350;52.316;10.530;2023-10-19T11:07:27;6.45;;;5.80;;
16478;SDS011;8350;52.316;10.530;2023-10-19T11:09:54;9.90;;;5.65;;
16478;SDS011;8350;52.316;10.530;2023-10-19T11:12:22;6.63;;;5.70;;
16478;SDS011;8350;52.316;10.530;2023-10-19T11:14:52;7.15;;;6.28;;
16478;SDS011;8350;52.316;10.530;2023-10-19T11:17:21;5.93;;;5.35;;
16478;SDS011;8350;52.316;10.530;2023-10-19T11:19:56;6.63;;;5.43;;
16478;SDS011;8350;52.316;10.530;2023-10-19T11:22:23;6.53;;;5.30;;
16478;SDS011;8350;52.316;10.530;2023-10-19T11:24:51;6.63;;;5.55;;
16478;SDS011;8350;52.316;10.530;2023-10-19T11:27:23;6.35;;;5.72;;
16478;SDS011;8350;52.316;10.530;2023-10-19T11:29:53;7.60;;;6.32;;
16478;SDS011;8350;52.316;10.530;2023-10-19T11:32:23;8.23;;;6.57;;
16478;SDS011;8350;52.316;10.530;2023-10-19T11:34:57;7.93;;;6.63;;
16478;SDS011;8350;52.316;10.530;2023-10-19T11:37:24;7.65;;;5.75;;
16478;SDS011;8350;52.316;10.530;2023-10-19T11:39:53;7.45;;;6.45;;
16478;SDS011;8350;52.316;10.530;2023-10-19T11:42:20;8.82;;;6.30;;
16478;SDS011;8350;52.316;10.530;2023-10-19T11:44:47;6.60;;;5.90;;
16478;SDS011;8350;52.316;10.530;2023-10-19T11:47:16;6.43;;;5.28;;
16478;SDS011;8350;52.316;10.530;2023-10-19T11:49:45;6.50;;;5.85;;
16478;SDS011;8350;52.316;10.530;2023-10-19T11:52:12;9.10;;;6.85;;
16478;SDS011;8350;52.316;10.530;2023-10-19T11:54:43;7.38;;;5.93;;
16478;SDS011;8350;52.316;10.530;2023-10-19T11:57:10;7.85;;;6.90;;
16478;SDS011;8350;52.316;10.530;2023-10-19T11:59:42;8.55;;;6.38;;
16478;SDS011;8350;52.316;10.530;2023-10-19T12:02:17;10.02;;;6.65;;
16478;SDS011;8350;52.316;10.530;2023-10-19T12:04:45;8.57;;;7.40;;
16478;SDS011;8350;52.316;10.530;2023-10-19T12:07:12;7.78;;;6.32;;
16478;SDS011;8350;52.316;10.530;2023-10-19T12:09:39;9.07;;;6.63;;
16478;SDS011;8350;52.316;10.530;2023-10-19T12:12:07;10.32;;;7.38;;
16478;SDS011;8350;52.316;10.530;2023-10-19T12:14:34;9.90;;;7.78;;
16478;SDS011;8350;52.316;10.530;2023-10-19T12:17:02;8.45;;;7.55;;
16478;SDS011;8350;52.316;10.530;2023-10-19T12:19:31;11.35;;;7.75;;
16478;SDS011;8350;52.316;10.530;2023-10-19T12:22:00;9.60;;;7.22;;
16478;SDS011;8350;52.316;10.530;2023-10-19T12:24:27;10.05;;;6.85;;
16478;SDS011;8350;52.316;10.530;2023-10-19T12:26:55;9.05;;;7.18;;
16478;SDS011;8350;52.316;10.530;2023-10-19T12:29:25;10.05;;;7.93;;
16478;SDS011;8350;52.316;10.530;2023-10-19T12:31:52;9.30;;;6.93;;
16478;SDS011;8350;52.316;10.530;2023-10-19T12:34:19;8.93;;;7.05;;
16478;SDS011;8350;52.316;10.530;2023-10-19T12:36:47;9.43;;;6.97;;
16478;SDS011;8350;52.316;10.530;2023-10-19T12:39:18;9.50;;;7.13;;
16478;SDS011;8350;52.316;10.530;2023-10-19T12:41:59;11.98;;;8.45;;
16478;SDS011;8350;52.316;10.530;2023-10-19T12:44:27;10.23;;;7.97;;
16478;SDS011;8350;52.316;10.530;2023-10-19T12:46:55;11.02;;;7.13;;
16478;SDS011;8350;52.316;10.530;2023-10-19T12:49:23;9.13;;;6.75;;
16478;SDS011;8350;52.316;10.530;2023-10-19T12:51:52;10.13;;;7.55;;
16478;SDS011;8350;52.316;10.530;2023-10-19T12:54:20;10.63;;;8.25;;
16478;SDS011;8350;52.316;10.530;2023-10-19T12:56:47;9.27;;;7.45;;
16478;SDS011;8350;52.316;10.530;2023-10-19T12:59:15;11.40;;;8.57;;
16478;SDS011;8350;52.316;10.530;2023-10-19T13:01:43;9.43;;;7.50;;
16478;SDS011;8350;52.316;10.530;2023-10-19T13:04:13;11.65;;;9.18;;
16478;SDS011;8350;52.316;10.530;2023-10-19T13:06:41;10.55;;;6.97;;
16478;SDS011;8350;52.316;10.530;2023-10-19T13:09:08;10.13;;;7.82;;
16478;SDS011;8350;52.316;10.530;2023-10-19T13:11:37;10.40;;;7.93;;
16478;SDS011;8350;52.316;10.530;2023-10-19T13:14:08;11.77;;;8.02;;
16478;SDS011;8350;52.316;10.530;2023-10-19T13:16:42;10.18;;;7.80;;
16478;SDS011;8350;52.316;10.530;2023-10-19T13:19:15;11.43;;;8.90;;
16478;SDS011;8350;52.316;10.530;2023-10-19T13:21:45;10.93;;;8.40;;
16478;SDS011;8350;52.316;10.530;2023-10-19T13:24:14;13.88;;;9.38;;
16478;SDS011;8350;52.316;10.530;2023-10-19T13:26:43;11.73;;;8.30;;
16478;SDS011;8350;52.316;10.530;2023-10-19T13:29:12;11.93;;;8.68;;
16478;SDS011;8350;52.316;10.530;2023-10-19T13:31:40;11.55;;;8.73;;
16478;SDS011;8350;52.316;10.530;2023-10-19T13:34:14;12.85;;;8.82;;
16478;SDS011;8350;52.316;10.530;2023-10-19T13:36:44;11.00;;;8.65;;
16478;SDS011;8350;52.316;10.530;2023-10-19T13:39:11;14.48;;;10.48;;
16478;SDS011;8350;52.316;10.530;2023-10-19T13:41:43;12.70;;;9.32;;
16478;SDS011;8350;52.316;10.530;2023-10-19T13:44:10;11.38;;;9.50;;
16478;SDS011;8350;52.316;10.530;2023-10-19T13:46:38;15.30;;;11.38;;
16478;SDS011;8350;52.316;10.530;2023-10-19T13:49:05;19.50;;;11.75;;
16478;SDS011;8350;52.316;10.530;2023-10-19T13:51:34;15.95;;;11.07;;
16478;SDS011;8350;52.316;10.530;2023-10-19T13:54:02;17.45;;;11.93;;
16478;SDS011;8350;52.316;10.530;2023-10-19T13:56:29;15.65;;;10.75;;
16478;SDS011;8350;52.316;10.530;2023-10-19T13:58:57;14.15;;;11.32;;
16478;SDS011;8350;52.316;10.530;2023-10-19T14:01:25;18.02;;;11.63;;
16478;SDS011;8350;52.316;10.530;2023-10-19T14:03:54;15.50;;;10.52;;
16478;SDS011;8350;52.316;10.530;2023-10-19T14:06:21;20.15;;;12.50;;
16478;SDS011;8350;52.316;10.530;2023-10-19T14:08:50;17.83;;;11.60;;
16478;SDS011;8350;52.316;10.530;2023-10-19T14:11:17;17.20;;;11.82;;
16478;SDS011;8350;52.316;10.530;2023-10-19T14:13:44;15.30;;;11.30;;
16478;SDS011;8350;52.316;10.530;2023-10-19T14:16:12;19.08;;;12.40;;
16478;SDS011;8350;52.316;10.530;2023-10-19T14:18:39;17.38;;;11.38;;
16478;SDS011;8350;52.316;10.530;2023-10-19T14:21:12;18.23;;;11.82;;
16478;SDS011;8350;52.316;10.530;2023-10-19T14:23:44;20.20;;;11.45;;
16478;SDS011;8350;52.316;10.530;2023-10-19T14:26:11;20.55;;;12.65;;
16478;SDS011;8350;52.316;10.530;2023-10-19T14:28:38;18.10;;;11.98;;
16478;SDS011;8350;52.316;10.530;2023-10-19T14:31:06;17.95;;;12.27;;
16478;SDS011;8350;52.316;10.530;2023-10-19T14:33:35;19.23;;;12.32;;
16478;SDS011;8350;52.316;10.530;2023-10-19T14:36:03;18.98;;;12.75;;
16478;SDS011;8350;52.316;10.530;2023-10-19T14:38:33;17.05;;;13.20;;
16478;SDS011;8350;52.316;10.530;2023-10-19T14:41:01;22.30;;;14.35;;
16478;SDS011;8350;52.316;10.530;2023-10-19T14:43:28;22.05;;;13.18;;
16478;SDS011;8350;52.316;10.530;2023-10-19T14:45:55;20.75;;;13.25;;
16478;SDS011;8350;52.316;10.530;2023-10-19T14:48:23;21.70;;;14.15;;
16478;SDS011;8350;52.316;10.530;2023-10-19T14:50:57;20.63;;;13.43;;
16478;SDS011;8350;52.316;10.530;2023-10-19T14:53:25;18.45;;;12.40;;
16478;SDS011;8350;52.316;10.530;2023-10-19T14:55:54;21.60;;;11.80;;
16478;SDS011;8350;52.316;10.530;2023-10-19T14:58:22;19.52;;;13.38;;
16478;SDS011;8350;52.316;10.530;2023-10-19T15:00:50;21.50;;;12.35;;
16478;SDS011;8350;52.316;10.530;2023-10-19T15:03:23;16.27;;;12.02;;
16478;SDS011;8350;52.316;10.530;2023-10-19T15:05:50;17.58;;;11.90;;
16478;SDS011;8350;52.316;10.530;2023-10-19T15:08:19;18.20;;;11.25;;